Time;durP1;ratioP1;P1;durP2;ratioP2;P2;SDS_P1;SDS_P2;PMS_P1;PMS_P2;Temp;Humidity;BMP_temperature;BMP_pressure;BME280_temperature;BME280_humidity;BME280_pressure;Samples;Min_cycle;Max_cycle;Signal;HPM_P1;HPM_P2
2023/05/13 00:00:06;;;;;;;0.60;0.60;;;;;;;11.15;77.69;100016.31;5050989;28;20254;-72
2023/05/13 00:02:32;;;;;;;0.50;0.50;;;;;;;11.12;77.95;100013.81;5050344;28;20212;-70
2023/05/13 00:04:59;;;;;;;0.60;0.60;;;;;;;11.15;78.00;100016.31;5050108;28;20236;-72
2023/05/13 00:07:27;;;;;;;0.60;0.60;;;;;;;11.19;77.78;100022.22;5050594;28;20254;-72
2023/05/13 00:09:55;;;;;;;0.43;0.43;;;;;;;11.25;78.09;100022.91;5050321;28;20599;-71
2023/05/13 00:12:22;;;;;;;0.60;0.60;;;;;;;11.31;77.97;100015.06;5050529;28;20727;-72
2023/05/13 00:14:51;;;;;;;0.50;0.50;;;;;;;11.37;77.58;100016.69;5050098;28;20596;-71
2023/05/13 00:17:18;;;;;;;0.43;0.43;;;;;;;11.41;77.64;100016.53;5050851;28;20212;-71
2023/05/13 00:19:45;;;;;;;0.67;0.67;;;;;;;11.33;77.47;100005.63;5050206;28;20208;-71
2023/05/13 00:22:11;;;;;;;0.50;0.50;;;;;;;11.34;78.75;100017.56;5050543;28;20254;-71
2023/05/13 00:24:38;;;;;;;0.70;0.70;;;;;;;11.33;79.32;100013.34;5050332;28;20235;-71
2023/05/13 00:27:07;;;;;;;0.73;0.73;;;;;;;11.32;80.12;100018.50;5050465;28;20258;-72
2023/05/13 00:29:33;;;;;;;0.47;0.47;;;;;;;11.23;80.64;100024.69;5050331;28;20258;-72
2023/05/13 00:32:00;;;;;;;1.00;1.00;;;;;;;11.26;80.75;100028.91;5050208;28;20258;-71
2023/05/13 00:34:27;;;;;;;0.67;0.67;;;;;;;11.20;81.00;100009.38;5050599;28;20200;-72
2023/05/13 00:36:53;;;;;;;0.53;0.53;;;;;;;11.29;80.98;100019.41;5049670;28;20193;-71
2023/05/13 00:39:21;;;;;;;0.60;0.60;;;;;;;11.29;81.57;100024.53;5050069;28;20197;-71
2023/05/13 00:41:48;;;;;;;0.50;0.50;;;;;;;11.21;82.75;100028.19;5050010;28;20197;-72
2023/05/13 00:44:16;;;;;;;0.50;0.50;;;;;;;11.17;82.89;100027.41;5049844;28;20205;-71
2023/05/13 00:46:43;;;;;;;0.43;0.43;;;;;;;11.21;82.69;100031.56;5050101;28;20216;-71
2023/05/13 00:49:10;;;;;;;0.40;0.40;;;;;;;11.17;82.74;100037.66;5049633;28;20231;-71
2023/05/13 00:51:37;;;;;;;0.40;0.40;;;;;;;11.16;82.90;100038.53;5050100;28;20274;-71
2023/05/13 00:54:04;;;;;;;0.40;0.40;;;;;;;11.13;82.65;100046.31;5050120;28;20305;-71
2023/05/13 00:56:31;;;;;;;0.43;0.43;;;;;;;11.15;83.29;100049.66;5049542;28;20228;-72
2023/05/13 00:58:58;;;;;;;0.50;0.50;;;;;;;11.04;83.46;100038.81;5049730;28;20657;-71
2023/05/13 01:01:34;;;;;;;0.50;0.50;;;;;;;11.03;83.62;100042.25;5050045;28;20209;-71
2023/05/13 01:04:09;;;;;;;0.50;0.50;;;;;;;11.13;83.97;100059.13;5049084;28;20224;-71
2023/05/13 01:06:45;;;;;;;0.60;0.60;;;;;;;11.14;83.76;100053.13;5050537;28;20223;-71
2023/05/13 01:09:24;;;;;;;0.50;0.50;;;;;;;11.16;84.04;100051.38;5053292;28;20204;-71
2023/05/13 01:11:53;;;;;;;0.50;0.50;;;;;;;11.15;83.80;100047.09;5051630;28;20205;-72
2023/05/13 01:14:25;;;;;;;0.60;0.60;;;;;;;11.05;85.22;100040.47;5052283;28;20262;-72
2023/05/13 01:16:58;;;;;;;0.40;0.40;;;;;;;10.94;84.88;100025.34;5052985;28;20250;-71
2023/05/13 01:19:35;;;;;;;0.50;0.50;;;;;;;11.03;84.42;100031.97;5052735;28;20189;-71
2023/05/13 01:22:05;;;;;;;0.40;0.40;;;;;;;10.89;84.38;100023.72;5053350;28;20661;-72
2023/05/13 01:24:32;;;;;;;0.50;0.50;;;;;;;10.79;85.70;100027.38;5053294;28;20585;-72
2023/05/13 01:26:59;;;;;;;0.43;0.43;;;;;;;10.80;86.88;100029.91;5052546;28;20243;-72
2023/05/13 01:29:26;;;;;;;0.70;0.70;;;;;;;10.82;87.07;100028.16;5053339;28;20204;-72
2023/05/13 01:31:55;;;;;;;0.67;0.67;;;;;;;10.85;87.60;100037.53;5052520;28;20259;-71
2023/05/13 01:34:23;;;;;;;0.70;0.70;;;;;;;10.86;87.79;100046.88;5052813;28;20730;-71
2023/05/13 01:36:50;;;;;;;0.60;0.60;;;;;;;10.89;87.89;100050.22;5052713;28;20220;-67
2023/05/13 01:39:19;;;;;;;0.50;0.50;;;;;;;10.94;88.47;100052.72;5052528;28;20200;-67
2023/05/13 01:41:46;;;;;;;0.50;0.50;;;;;;;10.96;88.40;100062.06;5052837;28;20711;-66
2023/05/13 01:44:13;;;;;;;0.50;0.50;;;;;;;11.00;87.84;100058.56;5052727;28;20201;-66
2023/05/13 01:46:40;;;;;;;0.50;0.50;;;;;;;10.99;88.71;100061.97;5052519;28;20220;-66
2023/05/13 01:49:08;;;;;;;0.60;0.60;;;;;;;11.00;89.02;100065.41;5052475;28;20743;-67
2023/05/13 01:51:35;;;;;;;0.50;0.50;;;;;;;11.01;89.12;100067.09;5052714;28;20213;-67
2023/05/13 01:54:02;;;;;;;0.50;0.50;;;;;;;10.96;89.31;100072.31;5052418;28;20246;-66
2023/05/13 01:56:30;;;;;;;0.50;0.50;;;;;;;10.98;89.87;100075.72;5052168;28;20258;-67
2023/05/13 01:58:57;;;;;;;0.57;0.57;;;;;;;10.92;90.75;100062.16;5052260;28;20200;-66
2023/05/13 02:01:24;;;;;;;0.60;0.60;;;;;;;10.92;91.02;100059.59;5051964;28;20205;-67
2023/05/13 02:03:51;;;;;;;0.50;0.50;;;;;;;10.93;91.23;100067.25;5051682;28;20262;-66
2023/05/13 02:06:17;;;;;;;0.50;0.50;;;;;;;10.96;90.94;100063.75;5051961;28;20216;-66
2023/05/13 02:08:44;;;;;;;0.53;0.53;;;;;;;10.94;91.55;100060.41;5052113;28;20741;-67
2023/05/13 02:11:11;;;;;;;0.50;0.50;;;;;;;10.95;91.46;100059.53;5050504;28;22316;-67
2023/05/13 02:13:39;;;;;;;0.50;0.50;;;;;;;10.95;91.15;100056.97;5052013;28;20204;-67
2023/05/13 02:16:06;;;;;;;0.50;0.50;;;;;;;10.96;90.82;100051.78;5052224;28;20246;-67
2023/05/13 02:18:32;;;;;;;0.50;0.50;;;;;;;10.97;90.57;100052.63;5051281;28;20208;-67
2023/05/13 02:20:59;;;;;;;0.50;0.50;;;;;;;10.98;90.49;100051.78;5052111;28;20201;-67
2023/05/13 02:23:26;;;;;;;0.47;0.47;;;;;;;10.98;90.13;100060.31;5052394;28;20213;-67
2023/05/13 02:25:52;;;;;;;0.60;0.60;;;;;;;10.98;90.32;100055.19;5052034;28;20216;-67
2023/05/13 02:28:19;;;;;;;0.60;0.60;;;;;;;10.96;90.26;100050.94;5051786;28;20205;-67
2023/05/13 02:30:47;;;;;;;0.50;0.50;;;;;;;10.98;90.30;100052.63;5051894;28;20205;-67
2023/05/13 02:33:14;;;;;;;0.50;0.50;;;;;;;10.93;91.09;100036.47;5051813;28;20250;-67
2023/05/13 02:35:41;;;;;;;0.57;0.57;;;;;;;10.97;91.20;100050.06;5051955;28;20197;-67
2023/05/13 02:38:09;;;;;;;0.40;0.40;;;;;;;10.95;90.56;100050.09;5052134;28;20201;-66
2023/05/13 02:40:36;;;;;;;0.70;0.70;;;;;;;10.95;90.89;100044.16;5051642;28;20201;-67
2023/05/13 02:43:02;;;;;;;0.60;0.60;;;;;;;10.94;91.37;100038.16;5051213;28;20256;-66
2023/05/13 02:45:29;;;;;;;0.97;0.97;;;;;;;10.96;91.12;100045.81;5051497;28;20286;-67
2023/05/13 02:47:57;;;;;;;0.60;0.60;;;;;;;10.95;91.17;100044.16;5051746;28;20258;-67
2023/05/13 02:50:24;;;;;;;0.50;0.50;;;;;;;10.95;91.81;100050.09;5051432;28;20214;-67
2023/05/13 02:52:51;;;;;;;0.47;0.47;;;;;;;10.95;91.82;100062.09;5051577;28;20205;-67
2023/05/13 02:55:17;;;;;;;0.50;0.50;;;;;;;10.92;92.52;100055.28;5050986;28;20196;-66
2023/05/13 02:57:44;;;;;;;0.40;0.40;;;;;;;10.95;92.53;100060.34;5051296;28;20201;-67
2023/05/13 03:00:12;;;;;;;0.50;0.50;;;;;;;10.96;92.48;100071.47;5051428;28;20668;-67
2023/05/13 03:02:39;;;;;;;0.53;0.53;;;;;;;10.96;92.92;100063.75;5050757;28;20205;-67
2023/05/13 03:05:08;;;;;;;0.40;0.40;;;;;;;10.93;92.78;100061.28;5051370;28;20224;-67
2023/05/13 03:07:34;;;;;;;0.40;0.40;;;;;;;10.99;92.54;100072.25;5051079;28;20725;-67
2023/05/13 03:10:01;;;;;;;0.53;0.53;;;;;;;11.01;92.38;100079.94;5051475;28;20753;-67
2023/05/13 03:12:29;;;;;;;0.40;0.40;;;;;;;11.01;92.87;100090.19;5049929;28;20205;-67
2023/05/13 03:14:56;;;;;;;0.50;0.50;;;;;;;11.02;92.46;100089.28;5050325;28;20197;-67
2023/05/13 03:17:24;;;;;;;0.60;0.60;;;;;;;11.04;92.73;100087.56;5050927;28;20204;-67
2023/05/13 03:19:51;;;;;;;0.50;0.50;;;;;;;11.02;92.79;100089.28;5051287;28;20273;-67
2023/05/13 03:22:19;;;;;;;0.50;0.50;;;;;;;10.98;92.86;100085.13;5051256;28;20201;-67
2023/05/13 03:24:45;;;;;;;0.40;0.40;;;;;;;10.86;93.37;100075.09;5050757;28;20239;-67
2023/05/13 03:27:12;;;;;;;0.57;0.57;;;;;;;10.95;93.21;100085.19;5051095;28;20266;-67
2023/05/13 03:29:39;;;;;;;0.50;0.50;;;;;;;10.96;92.91;100086.84;5050357;28;20205;-66
2023/05/13 03:32:06;;;;;;;0.53;0.53;;;;;;;10.95;93.56;100082.63;5050343;28;20558;-66
2023/05/13 03:34:35;;;;;;;0.67;0.67;;;;;;;10.93;93.70;100081.78;5050875;28;20633;-67
2023/05/13 03:37:01;;;;;;;0.60;0.60;;;;;;;11.02;92.96;100090.13;5050675;28;20242;-67
2023/05/13 03:39:29;;;;;;;0.50;0.50;;;;;;;11.08;93.71;100100.28;5050678;28;20223;-67
2023/05/13 03:41:56;;;;;;;0.50;0.50;;;;;;;11.16;94.33;100095.00;5050138;28;20205;-67
2023/05/13 03:44:23;;;;;;;0.60;0.60;;;;;;;11.25;94.10;100089.66;5050651;28;20294;-67
2023/05/13 03:46:49;;;;;;;0.43;0.43;;;;;;;11.37;93.87;100091.94;5050090;28;20256;-67
2023/05/13 03:49:17;;;;;;;0.60;0.60;;;;;;;11.46;92.23;100093.47;5050345;28;20200;-67
2023/05/13 03:51:44;;;;;;;0.50;0.50;;;;;;;11.54;91.69;100110.38;5050748;28;20212;-67
2023/05/13 03:54:11;;;;;;;0.50;0.50;;;;;;;11.62;92.13;100105.09;5050155;28;20210;-67
2023/05/13 03:56:39;;;;;;;0.47;0.47;;;;;;;11.65;90.09;100099.03;5050743;28;20319;-67
2023/05/13 03:59:05;;;;;;;0.50;0.50;;;;;;;11.77;89.16;100091.06;5049941;28;20201;-67
2023/05/13 04:01:32;;;;;;;0.40;0.40;;;;;;;11.83;88.80;100093.47;5050276;28;20665;-67
2023/05/13 04:03:59;;;;;;;0.40;0.40;;;;;;;11.86;87.20;100093.41;5050106;28;20290;-68
2023/05/13 04:06:26;;;;;;;0.60;0.60;;;;;;;11.95;87.58;100088.06;5050513;28;20216;-68
2023/05/13 04:08:52;;;;;;;0.67;0.67;;;;;;;12.08;87.07;100089.44;5050252;28;20204;-68
2023/05/13 04:11:19;;;;;;;0.40;0.40;;;;;;;12.18;86.62;100095.19;5050177;28;20250;-68
2023/05/13 04:13:47;;;;;;;0.50;0.50;;;;;;;12.14;85.34;100052.44;5050340;28;20664;-68
2023/05/13 04:16:14;;;;;;;0.47;0.47;;;;;;;12.32;84.04;100077.66;5049928;28;20197;-67
2023/05/13 04:18:41;;;;;;;0.47;0.47;;;;;;;12.36;84.62;100095.56;5050633;28;20208;-68
2023/05/13 04:21:08;;;;;;;0.53;0.53;;;;;;;12.44;84.94;100097.94;5050297;28;20250;-67
2023/05/13 04:23:34;;;;;;;0.47;0.47;;;;;;;12.67;85.02;100094.69;5050458;28;20306;-67
2023/05/13 04:26:01;;;;;;;0.50;0.50;;;;;;;12.85;81.70;100100.22;5050215;28;20196;-68
2023/05/13 04:28:28;;;;;;;0.50;0.50;;;;;;;13.02;81.00;100115.19;5049900;28;21344;-68
2023/05/13 04:30:56;;;;;;;0.40;0.40;;;;;;;13.28;80.41;100119.59;5050058;28;20200;-68
2023/05/13 04:33:23;;;;;;;0.40;0.40;;;;;;;13.56;80.16;100118.72;5049592;28;20232;-67
2023/05/13 04:35:49;;;;;;;0.43;0.43;;;;;;;13.65;79.65;100110.69;5050335;28;20205;-68
2023/05/13 04:38:16;;;;;;;0.40;0.40;;;;;;;13.92;78.43;100131.34;5050270;28;20728;-68
2023/05/13 04:40:43;;;;;;;0.57;0.57;;;;;;;14.05;76.90;100137.78;5049765;28;20258;-68
2023/05/13 04:43:11;;;;;;;0.50;0.50;;;;;;;14.30;78.15;100133.50;5053180;28;20213;-68
2023/05/13 04:45:38;;;;;;;0.43;0.43;;;;;;;14.50;76.24;100138.84;5053605;28;20281;-68
2023/05/13 04:48:07;;;;;;;0.50;0.50;;;;;;;14.55;75.20;100149.84;5053810;28;20270;-68
2023/05/13 04:50:33;;;;;;;0.50;0.50;;;;;;;14.56;74.92;100154.13;5053730;28;20271;-68
2023/05/13 04:53:00;;;;;;;0.90;0.90;;;;;;;14.44;76.39;100151.13;5053815;28;20200;-68
2023/05/13 04:55:27;;;;;;;0.60;0.60;;;;;;;14.12;77.89;100157.28;5053595;28;20255;-68
2023/05/13 04:57:54;;;;;;;0.50;0.50;;;;;;;13.57;80.61;100151.28;5053361;28;20201;-68
2023/05/13 05:00:20;;;;;;;0.53;0.53;;;;;;;13.61;81.54;100147.75;5053413;28;20209;-68
2023/05/13 05:02:47;;;;;;;0.63;0.63;;;;;;;13.48;82.89;100148.16;5053603;28;20584;-68
2023/05/13 05:05:15;;;;;;;0.50;0.50;;;;;;;13.37;83.31;100151.06;5052957;28;20636;-68
2023/05/13 05:07:42;;;;;;;0.50;0.50;;;;;;;13.40;83.93;100158.69;5052744;28;20654;-68
2023/05/13 05:10:09;;;;;;;0.60;0.60;;;;;;;13.32;84.75;100168.38;5053446;28;20233;-68
2023/05/13 05:12:36;;;;;;;0.60;0.60;;;;;;;13.24;84.73;100170.34;5053088;28;20255;-67
2023/05/13 05:15:04;;;;;;;0.40;0.40;;;;;;;13.24;86.13;100165.19;5053629;28;20200;-68
2023/05/13 05:17:31;;;;;;;0.50;0.50;;;;;;;13.22;86.01;100177.25;5052242;28;20874;-68
2023/05/13 05:19:58;;;;;;;0.50;0.50;;;;;;;13.10;86.43;100173.28;5053196;28;20215;-68
2023/05/13 05:22:26;;;;;;;0.40;0.40;;;;;;;13.18;86.72;100173.09;5053202;28;20211;-68
2023/05/13 05:24:53;;;;;;;0.70;0.70;;;;;;;13.30;87.12;100179.59;5052826;28;20205;-68
2023/05/13 05:27:20;;;;;;;0.50;0.50;;;;;;;13.28;86.19;100177.06;5052513;28;20259;-68
2023/05/13 05:29:46;;;;;;;1.17;1.17;;;;;;;13.19;86.51;100177.34;5052941;28;20247;-68
2023/05/13 05:32:13;;;;;;;0.57;0.57;;;;;;;13.08;88.08;100169.06;5052448;28;20207;-68
2023/05/13 05:34:40;;;;;;;0.70;0.70;;;;;;;13.27;87.16;100170.25;5052656;28;20204;-68
2023/05/13 05:37:07;;;;;;;0.97;0.97;;;;;;;13.66;87.98;100173.38;5052460;28;20270;-68
2023/05/13 05:39:35;;;;;;;0.50;0.50;;;;;;;13.99;85.52;100166.34;5052563;28;20201;-69
2023/05/13 05:42:01;;;;;;;0.50;0.50;;;;;;;14.48;83.55;100171.59;5052689;28;20210;-67
2023/05/13 05:44:28;;;;;;;0.53;0.53;;;;;;;14.73;83.05;100169.84;5052703;28;20209;-68
2023/05/13 05:46:55;;;;;;;0.50;0.50;;;;;;;14.99;81.16;100168.09;5052077;28;21717;-68
2023/05/13 05:49:22;;;;;;;0.70;0.70;;;;;;;15.05;79.55;100167.88;5052158;28;20242;-68
2023/05/13 05:51:48;;;;;;;0.50;0.50;;;;;;;15.24;79.01;100168.91;5052852;28;20205;-68
2023/05/13 05:54:15;;;;;;;0.70;0.70;;;;;;;15.33;76.23;100160.78;5052301;28;20406;-69
2023/05/13 05:56:43;;;;;;;0.50;0.50;;;;;;;15.28;76.11;100167.88;5052262;28;20201;-68
2023/05/13 05:59:10;;;;;;;0.60;0.60;;;;;;;15.37;75.77;100170.13;5052520;28;20254;-68
2023/05/13 06:01:36;;;;;;;0.60;0.60;;;;;;;15.58;76.28;100179.66;5052767;28;20278;-68
2023/05/13 06:04:04;;;;;;;0.60;0.60;;;;;;;15.84;74.98;100176.06;5052205;28;20236;-68
2023/05/13 06:06:31;;;;;;;0.50;0.50;;;;;;;16.09;72.38;100186.31;5052776;28;20200;-68
2023/05/13 06:08:57;;;;;;;0.57;0.57;;;;;;;16.01;71.55;100175.41;5052473;28;20672;-68
2023/05/13 06:11:24;;;;;;;0.40;0.40;;;;;;;16.13;71.89;100175.75;5052673;28;20676;-68
2023/05/13 06:13:55;;;;;;;0.77;0.77;;;;;;;16.22;71.62;100151.25;5052155;28;20246;-69
2023/05/13 06:16:22;;;;;;;0.50;0.50;;;;;;;16.47;69.45;100185.59;5052554;28;20744;-68
2023/05/13 06:18:49;;;;;;;0.40;0.40;;;;;;;16.59;68.62;100189.41;5052217;28;20252;-67
2023/05/13 06:21:15;;;;;;;0.60;0.60;;;;;;;16.58;67.60;100191.16;5052552;28;20223;-68
2023/05/13 06:23:42;;;;;;;0.60;0.60;;;;;;;16.78;66.14;100193.75;5051990;28;20200;-68
2023/05/13 06:26:09;;;;;;;0.40;0.40;;;;;;;16.81;67.10;100192.78;5051728;28;20201;-68
2023/05/13 06:28:35;;;;;;;0.60;0.60;;;;;;;16.95;66.01;100187.00;5051609;28;20224;-68
2023/05/13 06:31:03;;;;;;;0.40;0.40;;;;;;;17.06;67.89;100192.56;5051557;28;20197;-68
2023/05/13 06:33:30;;;;;;;0.60;0.60;;;;;;;16.98;65.78;100179.94;5051543;28;20196;-68
2023/05/13 06:35:57;;;;;;;0.50;0.50;;;;;;;17.07;65.07;100189.06;5051553;28;20201;-68
2023/05/13 06:38:23;;;;;;;0.40;0.40;;;;;;;17.02;64.90;100186.69;5051413;28;20246;-68
2023/05/13 06:40:50;;;;;;;0.40;0.40;;;;;;;16.93;66.19;100181.88;5051970;28;20201;-68
2023/05/13 06:43:17;;;;;;;0.57;0.57;;;;;;;17.07;66.00;100179.53;5051965;28;20206;-69
2023/05/13 06:45:44;;;;;;;0.50;0.50;;;;;;;17.19;63.73;100185.91;5051416;28;20201;-69
2023/05/13 06:48:14;;;;;;;0.30;0.30;;;;;;;16.96;67.31;100181.78;5050733;28;20597;-68
2023/05/13 06:50:40;;;;;;;0.97;0.97;;;;;;;17.10;65.11;100184.59;5051280;28;20736;-68
2023/05/13 06:53:10;;;;;;;0.57;0.57;;;;;;;17.15;64.74;100184.38;5051067;28;20699;-68
2023/05/13 06:55:41;;;;;;;0.60;0.60;;;;;;;16.97;63.32;100186.03;5051191;28;20212;-68
2023/05/13 06:58:08;;;;;;;0.50;0.50;;;;;;;16.89;64.24;100179.50;5050953;28;20306;-68
2023/05/13 07:00:37;;;;;;;0.50;0.50;;;;;;;16.81;65.38;100192.78;5049770;28;20231;-68
2023/05/13 07:03:05;;;;;;;0.50;0.50;;;;;;;16.78;65.05;100179.97;5051045;28;20224;-68
2023/05/13 07:05:34;;;;;;;0.50;0.50;;;;;;;17.02;66.17;100203.97;5050030;28;20231;-68
2023/05/13 07:08:05;;;;;;;0.40;0.40;;;;;;;17.10;64.11;100188.91;5051190;28;20688;-69
2023/05/13 07:10:32;;;;;;;0.50;0.50;;;;;;;17.01;63.78;100194.50;5051172;28;20565;-69
2023/05/13 07:12:59;;;;;;;0.57;0.57;;;;;;;17.04;66.11;100200.41;5051069;28;20204;-68
2023/05/13 07:15:26;;;;;;;0.50;0.50;;;;;;;17.35;64.60;100186.09;5051160;28;20277;-68
2023/05/13 07:17:53;;;;;;;0.40;0.40;;;;;;;17.48;63.56;100195.00;5046678;28;20193;-69
2023/05/13 07:20:21;;;;;;;0.60;0.60;;;;;;;17.46;62.68;100192.44;5051050;28;20642;-69
2023/05/13 07:22:49;;;;;;;0.50;0.50;;;;;;;17.59;61.45;100193.59;5051179;28;20584;-68
2023/05/13 07:25:16;;;;;;;0.53;0.53;;;;;;;17.54;62.39;100194.72;5050604;28;20208;-69
2023/05/13 07:27:43;;;;;;;0.40;0.40;;;;;;;17.29;61.11;100185.44;5050792;28;20250;-69
2023/05/13 07:30:11;;;;;;;0.40;0.40;;;;;;;17.16;62.93;100171.34;5050633;28;20651;-69
2023/05/13 07:32:39;;;;;;;0.50;0.50;;;;;;;17.08;62.46;100177.78;5051121;28;20197;-68
2023/05/13 07:35:06;;;;;;;0.40;0.40;;;;;;;17.02;62.86;100176.31;5050755;28;20664;-68
2023/05/13 07:37:33;;;;;;;0.30;0.30;;;;;;;17.16;63.51;100170.50;5050942;28;20208;-68
2023/05/13 07:40:02;;;;;;;2.50;1.30;;;;;;;17.17;62.87;100164.41;5050348;28;20204;-68
2023/05/13 07:42:28;;;;;;;0.43;0.43;;;;;;;17.11;62.71;100164.69;5050982;28;20192;-69
2023/05/13 07:44:55;;;;;;;0.67;0.67;;;;;;;17.17;64.25;100161.84;5050973;28;20201;-68
2023/05/13 07:47:22;;;;;;;1.07;1.07;;;;;;;17.39;64.77;100165.13;5050512;28;20217;-69
2023/05/13 07:49:49;;;;;;;0.70;0.70;;;;;;;17.56;62.64;100173.00;5051145;28;20235;-68
2023/05/13 07:52:16;;;;;;;0.50;0.50;;;;;;;17.74;61.44;100166.94;5049922;28;20197;-68
2023/05/13 07:54:42;;;;;;;1.23;1.23;;;;;;;17.73;61.27;100157.50;5050643;28;20672;-68
2023/05/13 07:57:10;;;;;;;0.60;0.60;;;;;;;17.72;61.31;100167.94;5050069;28;20250;-68
2023/05/13 07:59:37;;;;;;;0.60;0.60;;;;;;;17.70;61.92;100164.59;5050291;28;20204;-68
2023/05/13 08:02:04;;;;;;;0.40;0.40;;;;;;;17.69;61.42;100157.72;5050005;28;20205;-68
2023/05/13 08:04:31;;;;;;;0.40;0.40;;;;;;;17.73;60.98;100161.84;5050089;28;20309;-68
2023/05/13 08:06:58;;;;;;;0.60;0.60;;;;;;;17.59;62.11;100161.66;5050518;28;20212;-68
2023/05/13 08:09:24;;;;;;;0.60;0.60;;;;;;;17.66;61.89;100153.53;5050366;28;20256;-68
2023/05/13 08:11:51;;;;;;;0.73;0.73;;;;;;;17.78;61.37;100162.47;5050923;28;20223;-68
2023/05/13 08:14:19;;;;;;;0.47;0.47;;;;;;;18.08;61.51;100166.19;5050388;28;20659;-69
2023/05/13 08:16:46;;;;;;;0.50;0.50;;;;;;;18.23;59.78;100174.97;5053574;28;20204;-68
2023/05/13 08:19:14;;;;;;;0.77;0.77;;;;;;;18.27;60.13;100176.50;5054420;28;20193;-68
2023/05/13 08:21:40;;;;;;;0.53;0.53;;;;;;;18.44;61.63;100163.53;5054018;28;20215;-69
2023/05/13 08:24:07;;;;;;;0.50;0.50;;;;;;;18.72;63.34;100171.63;5054320;28;20206;-68
2023/05/13 08:26:34;;;;;;;0.50;0.50;;;;;;;18.79;60.31;100160.00;5052682;28;20731;-69
2023/05/13 08:29:01;;;;;;;0.40;0.40;;;;;;;19.01;59.58;100164.06;5053964;28;20291;-68
2023/05/13 08:31:30;;;;;;;0.60;0.60;;;;;;;19.09;58.24;100164.53;5054049;28;20203;-69
2023/05/13 08:33:57;;;;;;;0.50;0.50;;;;;;;19.07;57.74;100158.56;5053909;28;20666;-68
2023/05/13 08:36:24;;;;;;;0.60;0.60;;;;;;;19.26;59.84;100164.44;5054191;28;20198;-69
2023/05/13 08:38:51;;;;;;;0.57;0.57;;;;;;;19.42;58.22;100169.72;5054223;28;20285;-69
2023/05/13 08:41:18;;;;;;;0.53;0.53;;;;;;;19.73;56.84;100165.34;5054166;28;20200;-68
2023/05/13 08:43:47;;;;;;;0.60;0.60;;;;;;;19.69;55.94;100158.63;5053755;28;20211;-69
2023/05/13 08:46:16;;;;;;;0.43;0.43;;;;;;;19.77;57.06;100153.81;5053370;28;20195;-69
2023/05/13 08:48:45;;;;;;;0.50;0.50;;;;;;;19.80;55.57;100156.28;5053769;28;20836;-68
2023/05/13 08:51:12;;;;;;;0.40;0.40;;;;;;;19.88;54.03;100146.28;5053748;28;20282;-69
2023/05/13 08:53:39;;;;;;;0.50;0.50;;;;;;;19.93;52.32;100157.25;5053673;28;20204;-68
2023/05/13 08:56:08;;;;;;;1.17;0.47;;;;;;;20.26;52.21;100164.06;5053809;28;20262;-69
2023/05/13 08:58:35;;;;;;;0.73;0.73;;;;;;;20.27;50.76;100155.38;5053506;28;20205;-69
2023/05/13 09:01:02;;;;;;;1.03;0.70;;;;;;;20.41;51.36;100151.03;5052998;28;20309;-68
2023/05/13 09:03:29;;;;;;;0.57;0.57;;;;;;;20.32;47.89;100148.94;5053753;28;20630;-69
2023/05/13 09:06:00;;;;;;;0.50;0.50;;;;;;;20.31;49.24;100141.25;5053517;28;20258;-69
2023/05/13 09:08:27;;;;;;;0.50;0.50;;;;;;;20.42;48.53;100138.84;5053813;28;20234;-69
2023/05/13 09:10:54;;;;;;;0.50;0.50;;;;;;;20.39;48.07;100142.47;5053672;28;20655;-68
2023/05/13 09:13:21;;;;;;;0.50;0.50;;;;;;;20.29;48.23;100133.50;5052157;28;20207;-69
2023/05/13 09:15:50;;;;;;;0.40;0.40;;;;;;;20.08;48.28;100139.94;5053544;28;20720;-68
2023/05/13 09:18:18;;;;;;;0.40;0.40;;;;;;;20.00;50.34;100141.31;5053543;28;20192;-69
2023/05/13 09:20:45;;;;;;;0.43;0.43;;;;;;;19.92;50.10;100145.19;5053630;28;20561;-69
2023/05/13 09:23:14;;;;;;;0.37;0.37;;;;;;;20.12;50.18;100143.19;5053388;28;20199;-69
2023/05/13 09:25:41;;;;;;;0.83;0.83;;;;;;;20.29;48.38;100138.72;5053474;28;20204;-68
2023/05/13 09:28:08;;;;;;;0.40;0.40;;;;;;;20.14;46.09;100146.53;5052390;28;20211;-69
2023/05/13 09:30:37;;;;;;;0.50;0.50;;;;;;;20.20;45.81;100140.97;5053400;28;20329;-68
2023/05/13 09:33:06;;;;;;;0.50;0.50;;;;;;;20.38;48.41;100153.81;5053169;28;20197;-69
2023/05/13 09:35:33;;;;;;;0.50;0.50;;;;;;;20.38;47.03;100140.81;5052969;28;20193;-68
2023/05/13 09:38:00;;;;;;;0.40;0.40;;;;;;;20.60;46.55;100134.31;5052999;28;20200;-68
2023/05/13 09:40:29;;;;;;;0.40;0.40;;;;;;;20.77;47.92;100129.78;5053214;28;20200;-68
2023/05/13 09:42:58;;;;;;;0.30;0.30;;;;;;;21.04;48.37;100123.78;5053031;28;20573;-68
2023/05/13 09:45:25;;;;;;;0.30;0.30;;;;;;;21.35;46.63;100131.44;5053080;28;20288;-69
2023/05/13 09:47:55;;;;;;;0.60;0.60;;;;;;;21.39;45.08;100131.13;5053031;28;20286;-68
2023/05/13 09:50:23;;;;;;;0.40;0.40;;;;;;;21.44;44.92;100131.69;5053079;28;20680;-69
2023/05/13 09:52:49;;;;;;;0.40;0.40;;;;;;;21.05;44.06;100128.09;5052996;28;20189;-68
2023/05/13 09:55:16;;;;;;;0.30;0.30;;;;;;;21.31;44.76;100135.16;5052487;28;20635;-68
2023/05/13 09:57:45;;;;;;;0.40;0.40;;;;;;;21.44;48.69;100133.47;5052492;28;20580;-68
2023/05/13 10:00:13;;;;;;;0.50;0.50;;;;;;;21.72;54.04;100130.75;5052383;28;20630;-68
2023/05/13 10:02:40;;;;;;;0.40;0.40;;;;;;;21.82;45.67;100129.22;5052494;28;20209;-68
2023/05/13 10:05:09;;;;;;;0.50;0.50;;;;;;;21.63;43.77;100123.53;5051880;28;20274;-68
2023/05/13 10:07:36;;;;;;;0.50;0.50;;;;;;;21.68;44.29;100124.06;5052454;28;20201;-68
2023/05/13 10:10:04;;;;;;;0.30;0.30;;;;;;;21.75;45.94;100114.06;5052584;28;20572;-68
2023/05/13 10:12:32;;;;;;;0.60;0.60;;;;;;;21.94;44.90;100111.94;5052744;28;20209;-68
2023/05/13 10:15:01;;;;;;;0.37;0.37;;;;;;;22.14;45.21;100106.25;5052849;28;20307;-69
2023/05/13 10:17:30;;;;;;;0.40;0.40;;;;;;;22.22;44.95;100114.44;5052094;28;20259;-69
2023/05/13 10:19:57;;;;;;;0.50;0.50;;;;;;;21.73;43.76;100116.78;5051984;28;20660;-69
2023/05/13 10:22:28;;;;;;;0.30;0.30;;;;;;;21.67;43.79;100109.34;5051776;28;20620;-68
2023/05/13 10:24:57;;;;;;;0.60;0.60;;;;;;;21.40;43.12;100109.34;5051730;28;20193;-68
2023/05/13 10:27:27;;;;;;;0.40;0.40;;;;;;;21.56;46.49;100108.34;5052017;28;20726;-68
2023/05/13 10:29:55;;;;;;;0.50;0.50;;;;;;;21.84;46.03;100108.25;5051844;28;20255;-69
2023/05/13 10:32:24;;;;;;;0.30;0.30;;;;;;;21.58;41.52;100104.72;5051745;28;20778;-68
2023/05/13 10:34:55;;;;;;;0.30;0.30;;;;;;;21.76;48.55;100089.63;5052165;28;20196;-69
2023/05/13 10:37:48;;;;;;;0.60;0.60;;;;;;;21.97;43.19;100083.88;5051992;28;20204;-70
2023/05/13 10:40:38;;;;;;;0.40;0.40;;;;;;;21.87;45.70;100082.75;5051076;28;20251;-68
2023/05/13 10:43:17;;;;;;;0.40;0.40;;;;;;;21.32;42.21;100079.47;5049877;28;20201;-68
2023/05/13 10:45:48;;;;;;;0.40;0.40;;;;;;;21.33;45.27;100081.13;5052284;28;20200;-69
2023/05/13 10:48:17;;;;;;;0.40;0.40;;;;;;;21.51;47.36;100079.97;5051627;28;20655;-68
2023/05/13 10:50:52;;;;;;;0.73;0.73;;;;;;;21.41;43.04;100079.72;5051231;28;20709;-69
2023/05/13 10:53:23;;;;;;;0.30;0.30;;;;;;;21.42;43.89;100077.94;5051275;28;20203;-68
2023/05/13 10:55:54;;;;;;;0.30;0.30;;;;;;;21.65;43.49;100069.44;5051638;28;20296;-68
2023/05/13 10:58:23;;;;;;;1.03;0.93;;;;;;;21.85;46.11;100079.44;5051847;28;20251;-69
2023/05/13 11:00:51;;;;;;;0.30;0.30;;;;;;;22.06;44.51;100071.16;5046619;28;20330;-68
2023/05/13 11:03:29;;;;;;;0.40;0.40;;;;;;;22.18;42.67;100073.78;5051621;28;20266;-68
2023/05/13 11:06:04;;;;;;;0.40;0.40;;;;;;;22.24;43.67;100075.97;5051402;28;20726;-68
2023/05/13 11:08:37;;;;;;;0.40;0.40;;;;;;;22.37;45.76;100070.75;5051059;28;20304;-68
2023/05/13 11:11:27;;;;;;;0.40;0.40;;;;;;;22.47;44.15;100067.41;5051565;28;20201;-68
2023/05/13 11:13:54;;;;;;;0.30;0.30;;;;;;;22.54;43.67;100067.84;5051269;28;20200;-68
2023/05/13 11:16:22;;;;;;;0.63;0.63;;;;;;;22.56;43.20;100057.25;5050636;28;20277;-68
2023/05/13 11:18:51;;;;;;;0.40;0.40;;;;;;;22.74;45.10;100067.34;5048785;28;20672;-68
2023/05/13 11:21:29;;;;;;;0.50;0.50;;;;;;;22.75;43.34;100065.53;5050605;28;20196;-68
2023/05/13 11:23:57;;;;;;;0.40;0.40;;;;;;;22.60;41.68;100067.41;5046732;28;20200;-68
2023/05/13 11:26:24;;;;;;;0.40;0.40;;;;;;;22.19;42.76;100072.00;5050187;28;20279;-68